Time;durP1;ratioP1;P1;durP2;ratioP2;P2;SDS_P1;SDS_P2;PMS_P1;PMS_P2;Temp;Humidity;BMP_temperature;BMP_pressure;BME280_temperature;BME280_humidity;BME280_pressure;Samples;Min_cycle;Max_cycle;Signal;HPM_P1;HPM_P2
2022/10/05 00:01:01;;;;;;;24.60;13.95;;;;;;;4.66;78.29;98034.51;1734218;82;25685;-87
2022/10/05 00:03:36;;;;;;;21.52;12.88;;;;;;;4.68;78.38;98041.38;1734221;82;25255;-86
2022/10/05 00:06:02;;;;;;;20.92;13.15;;;;;;;4.71;78.33;98045.05;1734271;82;25910;-87
2022/10/05 00:08:32;;;;;;;19.77;12.85;;;;;;;4.72;78.24;98049.91;1734155;82;26006;-87
2022/10/05 00:11:00;;;;;;;17.50;11.10;;;;;;;4.69;78.09;98050.25;1734111;82;27443;-87
2022/10/05 00:13:29;;;;;;;15.18;9.93;;;;;;;4.66;78.03;98052.73;1734293;82;25871;-87
2022/10/05 00:16:13;;;;;;;16.15;10.48;;;;;;;4.61;77.95;98060.88;1734247;82;26526;-87
2022/10/05 00:18:40;;;;;;;19.15;10.20;;;;;;;4.59;77.90;98062.36;1734251;82;26507;-87
2022/10/05 00:21:23;;;;;;;12.58;8.20;;;;;;;4.47;77.72;98048.92;1733862;82;25968;-87
2022/10/05 00:23:51;;;;;;;14.93;7.87;;;;;;;4.41;77.83;98049.56;1733975;82;27365;-86
2022/10/05 00:26:24;;;;;;;13.78;8.40;;;;;;;4.42;77.96;98061.09;1734066;82;25750;-87
2022/10/05 00:28:52;;;;;;;19.12;8.10;;;;;;;4.34;77.92;98057.88;1734179;82;25789;-86
2022/10/05 00:31:26;;;;;;;14.05;8.70;;;;;;;4.31;77.97;98055.52;1734026;82;26300;-86
2022/10/05 00:33:53;;;;;;;15.93;10.80;;;;;;;4.24;78.08;98049.94;1734368;82;25829;-86
2022/10/05 00:36:20;;;;;;;14.03;9.15;;;;;;;4.22;78.13;98046.61;1734080;82;27469;-86
2022/10/05 00:38:46;;;;;;;16.45;10.40;;;;;;;4.15;78.09;98049.55;1734155;82;25797;-86
2022/10/05 00:41:18;;;;;;;14.87;9.15;;;;;;;4.16;78.24;98043.20;1734255;82;25678;-86
2022/10/05 00:44:19;;;;;;;12.25;9.15;;;;;;;4.10;78.21;98039.00;1734193;82;26387;-86
2022/10/05 00:46:57;;;;;;;19.95;11.33;;;;;;;4.03;78.26;98051.28;1733922;82;25848;-86
2022/10/05 00:49:49;;;;;;;21.60;12.03;;;;;;;3.99;78.46;98042.23;1734355;82;27475;-87
2022/10/05 00:52:30;;;;;;;21.75;12.10;;;;;;;3.96;78.54;98041.23;1730005;82;25733;-86
2022/10/05 00:55:19;;;;;;;19.77;12.00;;;;;;;3.96;78.80;98044.39;1733909;82;25782;-86
2022/10/05 00:58:21;;;;;;;20.35;11.38;;;;;;;4.02;78.96;98042.92;1734015;82;26500;-86
2022/10/05 01:00:59;;;;;;;12.80;8.03;;;;;;;4.04;78.97;98040.94;1702496;84;25814;-85
2022/10/05 01:03:51;;;;;;;14.68;10.03;;;;;;;4.02;78.95;98039.75;1702773;84;27430;-84
2022/10/05 01:07:00;;;;;;;15.58;10.45;;;;;;;4.04;79.03;98041.78;1702706;84;25833;-84
2022/10/05 01:10:05;;;;;;;13.62;8.68;;;;;;;4.01;78.91;98034.56;1702476;84;25838;-85
2022/10/05 01:13:08;;;;;;;17.05;9.18;;;;;;;3.96;78.97;98050.58;1702478;84;25790;-84
2022/10/05 01:15:40;;;;;;;17.57;10.05;;;;;;;3.98;79.22;98045.08;1702730;84;25829;-84
2022/10/05 01:18:37;;;;;;;15.10;10.05;;;;;;;4.00;79.32;98055.09;1702470;84;28021;-84
2022/10/05 01:21:09;;;;;;;20.00;10.43;;;;;;;4.05;79.37;98055.97;1702287;84;26015;-84
2022/10/05 01:24:17;;;;;;;17.73;10.35;;;;;;;4.04;79.42;98053.80;1698013;84;26640;-84
2022/10/05 01:27:07;;;;;;;21.45;10.35;;;;;;;4.04;79.46;98053.80;1651193;86;25873;-84
2022/10/05 01:29:54;;;;;;;21.23;10.98;;;;;;;3.98;79.51;98053.91;1651371;86;25818;-84
2022/10/05 01:32:56;;;;;;;19.60;11.38;;;;;;;3.96;79.72;98059.92;1649052;86;27618;-84
2022/10/05 01:35:45;;;;;;;17.92;11.10;;;;;;;4.02;79.93;98058.95;1649068;86;25781;-84
2022/10/05 01:38:26;;;;;;;19.80;11.20;;;;;;;4.07;79.92;98053.99;1680319;85;25884;-86
2022/10/05 01:41:10;;;;;;;15.88;10.63;;;;;;;4.09;79.82;98050.18;1680292;85;25762;-86
2022/10/05 01:43:57;;;;;;;17.17;10.05;;;;;;;4.12;79.80;98057.86;1680352;85;25933;-87
2022/10/05 01:46:47;;;;;;;16.32;9.75;;;;;;;4.14;79.75;98049.70;1678406;85;27476;-86
2022/10/05 01:49:39;;;;;;;15.98;10.28;;;;;;;4.08;79.51;98055.18;1669157;85;25834;-86
2022/10/05 01:52:14;;;;;;;15.00;9.85;;;;;;;4.02;79.48;98047.77;1676771;85;25897;-86
2022/10/05 01:55:23;;;;;;;16.15;10.38;;;;;;;4.01;79.57;98055.93;1678737;85;25844;-87
2022/10/05 01:58:13;;;;;;;14.75;10.20;;;;;;;4.01;79.82;98053.27;1679948;85;25848;-87
2022/10/05 02:00:48;;;;;;;14.40;9.65;;;;;;;4.02;80.10;98045.59;1686062;84;28275;-87
2022/10/05 02:03:26;;;;;;;14.43;8.18;;;;;;;4.01;80.02;98035.89;1659102;86;25751;-87
2022/10/05 02:06:00;;;;;;;13.05;8.30;;;;;;;3.99;80.09;98045.39;1654171;86;25840;-86
2022/10/05 02:08:38;;;;;;;16.20;8.55;;;;;;;3.99;80.26;98041.39;1653666;86;25694;-86
2022/10/05 02:11:08;;;;;;;14.47;8.45;;;;;;;4.01;80.37;98033.22;1654450;85;25981;-86
2022/10/05 02:13:49;;;;;;;16.67;8.68;;;;;;;4.04;80.44;98031.09;1654595;86;27424;-86
2022/10/05 02:16:33;;;;;;;11.28;8.53;;;;;;;4.01;80.38;98026.05;1654567;86;25767;-86
2022/10/05 02:19:20;;;;;;;11.75;7.92;;;;;;;3.98;80.38;98031.73;1654552;85;25930;-86
2022/10/05 02:21:52;;;;;;;17.52;8.65;;;;;;;4.02;80.48;98034.91;1654717;86;25850;-86
2022/10/05 02:24:23;;;;;;;14.83;8.10;;;;;;;4.06;80.53;98026.94;1638674;86;25842;-86
2022/10/05 02:26:52;;;;;;;14.23;7.83;;;;;;;4.09;80.48;98029.30;1653782;86;27418;-86
2022/10/05 02:29:23;;;;;;;14.38;8.75;;;;;;;4.03;80.44;98029.91;1654467;86;25812;-86
2022/10/05 02:31:56;;;;;;;12.13;7.95;;;;;;;4.02;80.57;98030.41;1662726;84;25813;-86
2022/10/05 02:34:36;;;;;;;14.47;8.30;;;;;;;4.02;80.65;98022.88;1681644;85;25762;-84
2022/10/05 02:37:46;;;;;;;12.80;8.30;;;;;;;4.01;80.70;98021.20;1681645;85;26385;-84
2022/10/05 02:40:26;;;;;;;10.78;8.33;;;;;;;4.01;80.74;98022.54;1681405;85;27450;-85
2022/10/05 02:43:25;;;;;;;14.58;8.15;;;;;;;3.96;80.79;98015.85;1681618;85;26274;-83
2022/10/05 02:46:03;;;;;;;15.08;7.30;;;;;;;3.94;80.89;98018.33;1681539;85;25811;-84
2022/10/05 02:49:09;;;;;;;19.42;9.13;;;;;;;3.93;80.94;98016.16;1681542;85;26583;-85
2022/10/05 02:51:59;;;;;;;15.35;9.20;;;;;;;3.99;81.02;98014.18;1681845;85;25780;-84
2022/10/05 02:54:40;;;;;;;10.15;8.15;;;;;;;3.99;81.05;98018.19;1671897;85;28134;-84
2022/10/05 02:57:57;;;;;;;13.15;8.85;;;;;;;3.98;80.96;98015.17;1681424;85;25831;-85
2022/10/05 03:00:25;;;;;;;13.62;8.65;;;;;;;3.99;81.03;98003.49;1681747;85;25735;-84
2022/10/05 03:03:06;;;;;;;11.63;7.83;;;;;;;3.94;81.17;97998.30;1681671;85;25888;-84
2022/10/05 03:05:47;;;;;;;10.18;7.85;;;;;;;3.91;81.24;98007.45;1680571;85;25666;-84
2022/10/05 03:08:25;;;;;;;14.40;7.65;;;;;;;3.93;81.35;98010.81;1681789;85;28107;-84
2022/10/05 03:11:12;;;;;;;13.13;8.18;;;;;;;3.95;81.41;98004.82;1681572;85;25768;-85
2022/10/05 03:13:53;;;;;;;17.92;7.67;;;;;;;3.98;81.39;98005.02;1681318;85;25760;-86
2022/10/05 03:16:46;;;;;;;14.15;8.23;;;;;;;4.01;81.43;98005.17;1681535;85;25988;-85
2022/10/05 03:19:57;;;;;;;13.62;8.00;;;;;;;3.97;81.51;98012.19;1681568;85;25673;-85
2022/10/05 03:22:35;;;;;;;17.07;7.62;;;;;;;3.98;81.58;98004.48;1681848;85;27467;-85
2022/10/05 03:25:26;;;;;;;13.18;7.75;;;;;;;3.96;81.63;97998.98;1681103;85;25720;-85
2022/10/05 03:28:30;;;;;;;9.48;7.47;;;;;;;3.94;81.72;98003.14;1681636;85;25971;-85
2022/10/05 03:31:07;;;;;;;12.55;8.30;;;;;;;4.01;81.83;98002.50;1596505;89;26690;-86
2022/10/05 03:33:45;;;;;;;20.05;8.53;;;;;;;3.99;81.80;97994.14;1680689;85;25365;-85
2022/10/05 03:36:25;;;;;;;13.58;7.42;;;;;;;4.05;81.92;98001.20;1681333;85;27298;-85
2022/10/05 03:39:06;;;;;;;9.88;6.55;;;;;;;4.10;81.92;97996.25;1680851;85;25740;-86
2022/10/05 03:41:50;;;;;;;14.47;7.40;;;;;;;4.12;81.84;97995.56;1681628;85;25736;-86
2022/10/05 03:44:31;;;;;;;14.93;8.15;;;;;;;4.12;81.82;97996.91;1681659;85;26456;-85
2022/10/05 03:47:35;;;;;;;17.85;9.00;;;;;;;4.09;81.80;97997.24;1679939;85;26188;-85
2022/10/05 03:50:19;;;;;;;13.53;9.40;;;;;;;4.01;81.74;97999.34;1681431;85;28420;-86
2022/10/05 03:53:21;;;;;;;12.80;9.33;;;;;;;4.02;81.90;97990.83;1676041;85;25657;-85
2022/10/05 03:55:56;;;;;;;12.05;8.60;;;;;;;4.08;82.13;97999.57;1681592;85;25807;-85
2022/10/05 03:58:52;;;;;;;11.45;7.10;;;;;;;4.13;82.13;98005.27;1680019;85;26440;-86
2022/10/05 04:01:24;;;;;;;16.10;7.28;;;;;;;4.12;82.01;97996.41;1680440;85;25961;-85
2022/10/05 04:03:58;;;;;;;12.60;6.47;;;;;;;4.08;81.80;98002.23;1681743;85;28175;-85
2022/10/05 04:06:30;;;;;;;12.80;6.70;;;;;;;4.08;81.83;98008.42;1681340;85;25863;-86
2022/10/05 04:09:23;;;;;;;12.00;7.10;;;;;;;4.09;81.80;98000.75;1655792;85;25857;-85
2022/10/05 04:12:09;;;;;;;10.88;6.50;;;;;;;4.07;81.68;98008.58;1681789;85;25786;-86
2022/10/05 04:14:46;;;;;;;12.10;7.78;;;;;;;4.10;81.84;98013.62;1681585;85;25788;-85
2022/10/05 04:17:36;;;;;;;10.82;8.20;;;;;;;4.03;81.83;98009.38;1681611;85;27386;-85
2022/10/05 04:20:20;;;;;;;12.60;7.53;;;;;;;4.01;82.06;98019.87;1681557;85;25974;-85
2022/10/05 04:22:58;;;;;;;12.80;6.83;;;;;;;4.02;82.26;98030.90;1681562;85;25787;-85
2022/10/05 04:25:33;;;;;;;15.38;7.90;;;;;;;4.04;82.39;98031.09;1656728;85;25741;-85
2022/10/05 04:28:24;;;;;;;13.13;7.20;;;;;;;4.04;82.36;98032.92;1681646;85;25238;-85
2022/10/05 04:30:53;;;;;;;13.20;7.75;;;;;;;4.09;82.34;98030.14;1681183;84;27488;-85
2022/10/05 04:33:21;;;;;;;13.70;7.45;;;;;;;4.12;82.36;98024.95;1682913;85;25717;-85
2022/10/05 04:36:10;;;;;;;12.82;7.83;;;;;;;4.17;82.33;98028.86;1684419;85;25717;-85
2022/10/05 04:39:06;;;;;;;13.22;7.47;;;;;;;4.21;82.22;98029.39;1684381;85;25773;-85
2022/10/05 04:42:08;;;;;;;14.00;8.00;;;;;;;4.27;82.16;98042.11;1684251;85;25780;-85
2022/10/05 04:45:10;;;;;;;11.17;7.43;;;;;;;4.22;81.94;98031.07;1684796;84;28202;-85
2022/10/05 04:47:57;;;;;;;14.10;7.85;;;;;;;4.14;81.87;98028.32;1655611;85;25935;-85
2022/10/05 04:50:55;;;;;;;13.90;7.72;;;;;;;4.12;81.88;98027.63;1683041;85;37321;-85
2022/10/05 04:53:32;;;;;;;17.12;8.40;;;;;;;4.11;81.89;98012.09;1683975;85;25909;-85
2022/10/05 04:56:25;;;;;;;17.40;8.00;;;;;;;4.08;81.94;98006.25;1684669;84;25700;-84
2022/10/05 04:59:31;;;;;;;14.85;9.33;;;;;;;4.09;82.00;98009.27;1684136;85;27389;-85
2022/10/05 05:02:26;;;;;;;13.18;8.10;;;;;;;4.11;82.08;98025.95;1683858;85;25928;-85
2022/10/05 05:05:18;;;;;;;15.88;8.95;;;;;;;4.14;82.12;98017.14;1680651;85;25800;-85
2022/10/05 05:07:59;;;;;;;21.65;11.10;;;;;;;4.16;82.17;98019.16;1683024;85;25774;-85
2022/10/05 05:10:55;;;;;;;18.37;11.05;;;;;;;4.23;82.17;98022.03;1684602;84;25752;-85
2022/10/05 05:13:56;;;;;;;13.88;9.38;;;;;;;4.23;82.11;98016.19;1684249;85;27397;-85
2022/10/05 05:16:41;;;;;;;14.15;9.70;;;;;;;4.24;82.04;98007.67;1684523;85;25835;-85
2022/10/05 05:19:32;;;;;;;22.48;12.25;;;;;;;4.26;82.04;98021.73;1684300;85;25792;-85
2022/10/05 05:22:35;;;;;;;23.30;12.53;;;;;;;4.23;81.96;98014.85;1684055;85;25828;-85
2022/10/05 05:25:38;;;;;;;22.13;12.68;;;;;;;4.23;82.04;98008.17;1680722;85;25803;-85
2022/10/05 05:28:31;;;;;;;19.98;12.05;;;;;;;4.26;82.15;98009.70;1684665;84;27635;-85
2022/10/05 05:31:11;;;;;;;19.75;11.95;;;;;;;4.32;82.24;98012.59;1683724;85;25937;-85
2022/10/05 05:34:01;;;;;;;21.70;12.53;;;;;;;4.36;82.29;97997.06;1684359;84;25739;-86
2022/10/05 05:36:57;;;;;;;25.43;13.62;;;;;;;4.35;82.25;98002.06;1684093;84;26386;-85
2022/10/05 05:39:35;;;;;;;23.27;12.50;;;;;;;4.38;82.32;98011.11;1683234;85;25709;-85
2022/10/05 05:42:22;;;;;;;19.95;12.10;;;;;;;4.41;82.39;98009.47;1683991;85;27451;-85
2022/10/05 05:44:52;;;;;;;28.75;15.32;;;;;;;4.44;82.47;98019.86;1683784;85;25665;-85
2022/10/05 05:47:34;;;;;;;28.17;16.97;;;;;;;4.47;82.43;98020.05;1684558;84;25759;-85
2022/10/05 05:50:11;;;;;;;30.57;17.62;;;;;;;4.50;82.39;98020.55;1684567;85;25693;-86
2022/10/05 05:52:46;;;;;;;27.75;19.05;;;;;;;4.53;82.35;98024.25;1684545;84;25827;-85
2022/10/05 05:55:26;;;;;;;29.52;18.95;;;;;;;4.56;82.37;98023.94;1680614;85;28206;-85
2022/10/05 05:58:07;;;;;;;26.85;13.32;;;;;;;4.59;82.41;98023.59;1684401;85;25778;-85
2022/10/05 06:01:06;;;;;;;21.50;12.53;;;;;;;4.62;82.59;98028.63;1683905;85;25711;-86
2022/10/05 06:03:41;;;;;;;16.65;9.48;;;;;;;4.70;82.85;98027.86;1635221;85;26616;-85
2022/10/05 06:06:15;;;;;;;18.90;9.93;;;;;;;4.78;83.08;98019.02;1684693;85;25677;-85
2022/10/05 06:08:49;;;;;;;16.12;9.30;;;;;;;4.88;83.24;98017.90;1684692;85;27396;-86
2022/10/05 06:11:23;;;;;;;18.25;8.88;;;;;;;4.96;83.41;98028.63;1684589;84;25768;-86
2022/10/05 06:13:50;;;;;;;13.15;7.53;;;;;;;5.05;83.51;98025.00;1684549;84;25820;-86
2022/10/05 06:16:40;;;;;;;15.80;8.05;;;;;;;5.15;83.70;98027.54;1684349;85;25832;-86
2022/10/05 06:19:15;;;;;;;13.13;7.67;;;;;;;5.24;83.80;98031.91;1684635;85;25871;-86
2022/10/05 06:22:16;;;;;;;19.73;7.67;;;;;;;5.36;83.87;98017.22;1684601;85;27397;-86
2022/10/05 06:25:14;;;;;;;12.88;7.33;;;;;;;5.44;83.98;98017.23;1684546;85;25720;-85
2022/10/05 06:28:03;;;;;;;14.38;7.47;;;;;;;5.57;83.94;98013.23;1684614;85;25746;-86
2022/10/05 06:30:41;;;;;;;16.80;8.65;;;;;;;5.66;84.01;98006.91;1718893;82;25767;-85
2022/10/05 06:33:26;;;;;;;14.55;8.33;;;;;;;5.75;83.99;98007.25;1711328;83;26128;-86
2022/10/05 06:36:31;;;;;;;16.80;8.68;;;;;;;5.84;83.89;98007.58;1658085;86;28344;-86
2022/10/05 06:39:25;;;;;;;16.65;9.70;;;;;;;5.95;83.97;98017.99;1670100;85;26532;-86
2022/10/05 06:42:28;;;;;;;16.12;9.08;;;;;;;6.06;83.99;98011.45;1669366;85;25809;-87
2022/10/05 06:45:08;;;;;;;22.15;13.13;;;;;;;6.18;84.12;98025.35;1670345;85;25807;-86
2022/10/05 06:47:53;;;;;;;23.42;13.60;;;;;;;6.28;84.17;98025.51;1669385;84;25816;-87
2022/10/05 06:50:39;;;;;;;15.80;9.80;;;;;;;6.39;84.27;98020.33;1670547;85;27637;-86
2022/10/05 06:53:26;;;;;;;12.88;8.05;;;;;;;6.51;84.24;98029.69;1662237;84;25418;-87
2022/10/05 06:56:21;;;;;;;15.75;9.90;;;;;;;6.64;84.14;98027.29;1669684;85;25793;-86
2022/10/05 06:59:22;;;;;;;15.90;10.65;;;;;;;6.77;84.05;98024.91;1670385;85;25760;-86
2022/10/05 07:02:33;;;;;;;12.50;7.67;;;;;;;6.87;84.01;98024.73;1670441;85;25763;-86
2022/10/05 07:05:43;;;;;;;11.55;7.35;;;;;;;6.96;83.98;98040.30;1669624;84;27401;-86
2022/10/05 07:08:31;;;;;;;11.65;7.17;;;;;;;7.04;83.77;98039.75;1670259;85;25459;-86
2022/10/05 07:11:14;;;;;;;11.90;7.08;;;;;;;7.13;83.63;98039.20;1670354;85;25781;-87
2022/10/05 07:14:01;;;;;;;11.18;7.12;;;;;;;7.20;83.57;98040.20;1670437;85;25805;-86
2022/10/05 07:16:48;;;;;;;9.88;6.45;;;;;;;7.33;83.64;98042.33;1670033;85;25266;-86
2022/10/05 07:19:42;;;;;;;9.98;6.30;;;;;;;7.55;83.79;98036.99;1611153;87;27409;-86
2022/10/05 07:22:37;;;;;;;10.30;6.10;;;;;;;7.81;83.77;98029.11;1611295;88;25861;-86
2022/10/05 07:25:21;;;;;;;9.23;6.12;;;;;;;8.09;83.79;98020.80;1611748;88;25871;-86
2022/10/05 07:27:54;;;;;;;13.70;7.40;;;;;;;8.34;83.53;98030.04;1610695;88;27148;-86
2022/10/05 07:30:21;;;;;;;14.55;7.08;;;;;;;8.48;83.16;98030.58;1611723;88;25813;-86
2022/10/05 07:33:26;;;;;;;9.00;6.08;;;;;;;8.60;83.12;98021.05;1611745;88;27480;-86
2022/10/05 07:39:34;;;;;;;15.65;6.00;;;;;;;8.97;82.83;98024.17;1625034;88;25771;-86
2022/10/05 07:42:31;;;;;;;11.55;5.78;;;;;;;9.26;82.71;98023.33;1549270;92;25800;-86
2022/10/05 07:45:11;;;;;;;10.20;6.15;;;;;;;9.45;82.39;98022.72;1549420;92;25763;-86
2022/10/05 07:47:49;;;;;;;7.20;5.37;;;;;;;9.79;82.57;98011.78;1537494;92;27496;-86
2022/10/05 07:50:24;;;;;;;9.73;5.85;;;;;;;10.18;82.15;98012.21;1549201;91;25857;-86
2022/10/05 07:52:58;;;;;;;12.33;6.62;;;;;;;10.64;81.84;98013.09;1549339;92;25988;-86
2022/10/05 07:55:31;;;;;;;12.20;5.15;;;;;;;11.17;81.56;98010.20;1555653;89;27063;-86
2022/10/05 07:58:03;;;;;;;9.05;5.00;;;;;;;11.58;80.62;98002.06;1601332;89;25812;-86
2022/10/05 08:01:07;;;;;;;8.70;4.20;;;;;;;11.84;79.27;97998.08;1601423;89;27460;-85
2022/10/05 08:04:03;;;;;;;7.00;4.05;;;;;;;12.02;78.64;97998.02;1601221;89;25815;-85
2022/10/05 08:06:57;;;;;;;10.53;4.62;;;;;;;12.16;77.97;97986.18;1587036;89;26498;-85
2022/10/05 08:09:58;;;;;;;6.33;4.70;;;;;;;12.30;77.72;97995.98;1559779;89;25963;-85
2022/10/05 08:13:04;;;;;;;8.93;4.62;;;;;;;12.51;77.44;97998.47;1601214;89;25768;-85
2022/10/05 08:15:37;;;;;;;10.80;4.72;;;;;;;12.80;77.50;97997.16;1601035;89;28215;-85
2022/10/05 08:18:42;;;;;;;5.20;4.20;;;;;;;13.00;76.66;98001.20;1640996;85;25816;-85
2022/10/05 08:21:11;;;;;;;8.33;4.03;;;;;;;13.14;76.26;97994.74;1681978;85;25736;-85
2022/10/05 08:23:58;;;;;;;9.75;4.55;;;;;;;13.31;75.42;97996.44;1682321;85;25824;-84
2022/10/05 08:26:54;;;;;;;6.67;3.72;;;;;;;13.47;75.27;97995.13;1682064;85;25761;-86
2022/10/05 08:29:32;;;;;;;5.15;3.42;;;;;;;13.53;74.61;97986.12;1682483;85;27374;-85
2022/10/05 08:32:03;;;;;;;7.67;4.25;;;;;;;13.57;73.06;97988.72;1676981;85;25878;-85
2022/10/05 08:34:40;;;;;;;9.40;3.90;;;;;;;13.50;72.73;97993.36;1682026;84;26485;-84
2022/10/05 08:37:20;;;;;;;5.45;3.70;;;;;;;13.67;72.81;97993.14;1684628;85;26507;-86
2022/10/05 08:40:04;;;;;;;4.78;3.85;;;;;;;13.86;72.37;97993.58;1684546;85;25756;-86
2022/10/05 08:43:02;;;;;;;6.92;4.12;;;;;;;14.08;71.69;97994.06;1669931;85;28192;-87
2022/10/05 08:45:55;;;;;;;8.03;4.08;;;;;;;14.28;71.46;97992.55;1683974;85;26047;-85
2022/10/05 08:48:49;;;;;;;4.62;3.50;;;;;;;14.48;70.78;98002.78;1684301;85;25756;-87
2022/10/05 08:51:40;;;;;;;6.72;3.65;;;;;;;14.67;70.54;98005.84;1684375;84;26300;-86
2022/10/05 08:54:26;;;;;;;5.53;3.52;;;;;;;14.88;68.53;97988.80;1684198;85;25704;-82
2022/10/05 08:57:13;;;;;;;5.17;3.35;;;;;;;15.05;68.63;97990.73;1684094;84;27442;-86
2022/10/05 09:00:06;;;;;;;4.90;3.25;;;;;;;15.23;68.53;97989.05;1684365;84;25280;-84
2022/10/05 09:03:03;;;;;;;8.78;3.72;;;;;;;15.32;68.08;97974.12;1684133;85;25834;-85
2022/10/05 09:05:57;;;;;;;6.22;3.83;;;;;;;15.43;68.11;97971.46;1684357;85;25833;-85
2022/10/05 09:09:00;;;;;;;5.47;3.87;;;;;;;15.59;66.70;97974.63;1684672;84;25837;-87
2022/10/05 09:11:46;;;;;;;5.40;3.30;;;;;;;15.59;66.70;97974.63;1683439;85;27416;-86
2022/10/05 09:14:52;;;;;;;5.40;3.40;;;;;;;15.66;67.22;97972.66;1683346;85;25698;-86
2022/10/05 09:17:30;;;;;;;7.42;4.00;;;;;;;15.77;66.78;97967.80;1683839;85;25802;-86
2022/10/05 09:20:22;;;;;;;5.42;4.00;;;;;;;15.92;66.84;97981.00;1684440;84;25770;-86
2022/10/05 09:22:59;;;;;;;11.55;4.53;;;;;;;16.00;66.17;97969.77;1635559;85;25928;-85
2022/10/05 09:25:49;;;;;;;5.53;3.70;;;;;;;16.00;65.93;97967.88;1684760;85;27468;-86
2022/10/05 09:28:44;;;;;;;6.25;4.15;;;;;;;16.06;66.06;97963.41;1684142;85;25777;-86
2022/10/05 09:31:25;;;;;;;6.60;3.70;;;;;;;16.08;65.47;97963.98;1684566;85;26100;-86
2022/10/05 09:34:24;;;;;;;15.10;4.55;;;;;;;16.05;65.32;97950.32;1685610;84;26590;-85
2022/10/05 09:37:20;;;;;;;8.35;4.62;;;;;;;15.93;64.98;97952.71;1695339;84;25236;-86
2022/10/05 09:39:55;;;;;;;6.90;3.98;;;;;;;15.85;65.27;97958.77;1695296;84;27337;-86
2022/10/05 09:42:44;;;;;;;8.48;4.70;;;;;;;15.75;64.75;97956.30;1693904;84;26362;-89
2022/10/05 09:45:34;;;;;;;5.87;4.45;;;;;;;15.66;64.82;97950.89;1695371;84;25784;-87
2022/10/05 09:48:24;;;;;;;6.42;4.58;;;;;;;15.65;64.85;97958.22;1695304;84;25706;-86
2022/10/05 09:51:25;;;;;;;8.78;4.65;;;;;;;15.64;64.78;97972.89;1661295;85;25369;-86
2022/10/05 09:54:35;;;;;;;7.37;5.22;;;;;;;15.73;64.66;97974.22;1661206;86;28102;-87
2022/10/05 09:57:34;;;;;;;6.90;4.70;;;;;;;15.88;64.94;97975.17;1661394;86;25875;-87
2022/10/05 10:00:19;;;;;;;7.85;4.62;;;;;;;16.04;65.12;97975.89;1661377;86;25887;-86
2022/10/05 10:02:57;;;;;;;8.53;4.50;;;;;;;16.17;65.02;97975.69;1636710;86;25982;-86
2022/10/05 10:05:40;;;;;;;6.65;4.50;;;;;;;16.28;64.32;97976.78;1661468;86;25771;-87
2022/10/05 10:08:27;;;;;;;9.55;4.08;;;;;;;16.35;64.26;97969.84;1660290;85;27436;-86
2022/10/05 10:11:02;;;;;;;6.83;4.30;;;;;;;16.42;64.53;97973.31;1661344;86;25824;-86
2022/10/05 10:14:03;;;;;;;7.47;4.33;;;;;;;16.51;64.34;97970.53;1661284;86;25907;-84
2022/10/05 10:16:53;;;;;;;9.18;4.60;;;;;;;16.63;64.20;97967.31;1662504;84;26702;-87
2022/10/05 10:19:31;;;;;;;5.47;4.22;;;;;;;16.70;64.05;97956.28;1655005;86;25979;-86
2022/10/05 10:22:18;;;;;;;6.22;4.00;;;;;;;16.76;63.71;97954.81;1722266;83;28782;-86
2022/10/05 10:25:04;;;;;;;7.53;4.97;;;;;;;16.73;63.19;97947.11;1723904;83;25727;-87
2022/10/05 10:28:21;;;;;;;7.05;5.10;;;;;;;16.71;63.25;97945.14;1735046;81;25793;-86
2022/10/05 10:31:14;;;;;;;7.60;4.85;;;;;;;16.75;63.62;97950.95;1644094;86;25921;-86
2022/10/05 10:33:48;;;;;;;7.62;5.03;;;;;;;16.89;63.24;97948.29;1740587;81;25799;-87
2022/10/05 10:36:37;;;;;;;8.53;4.47;;;;;;;17.01;63.15;97944.19;1723812;81;27390;-87
2022/10/05 10:39:26;;;;;;;7.70;4.97;;;;;;;17.11;63.47;97934.86;1722187;83;25721;-87
2022/10/05 10:42:13;;;;;;;6.40;4.35;;;;;;;17.21;63.43;97930.97;1720532;83;25726;-86
2022/10/05 10:45:11;;;;;;;8.73;3.92;;;;;;;17.24;62.36;97926.41;1721675;83;26523;-86
2022/10/05 10:48:04;;;;;;;6.28;3.65;;;;;;;17.27;62.42;97931.36;1722713;83;25290;-87
2022/10/05 10:50:44;;;;;;;5.45;2.92;;;;;;;17.32;62.30;97929.28;1722605;82;27449;-85
2022/10/05 10:54:02;;;;;;;4.75;3.22;;;;;;;17.36;62.09;97919.02;1722466;83;25801;-87
2022/10/05 10:56:59;;;;;;;6.15;2.52;;;;;;;17.34;61.92;97921.16;1721948;83;25676;-86
2022/10/05 10:59:43;;;;;;;4.90;3.00;;;;;;;17.34;61.03;97921.16;1722193;83;25820;-86
2022/10/05 11:02:42;;;;;;;5.85;2.60;;;;;;;17.32;60.93;97913.74;1722381;83;25776;-86
2022/10/05 11:05:47;;;;;;;3.62;2.30;;;;;;;17.35;60.65;97911.90;1722502;82;27359;-87
2022/10/05 11:08:49;;;;;;;4.72;2.12;;;;;;;17.36;60.41;97910.83;1721542;83;25698;-86
2022/10/05 11:11:34;;;;;;;6.40;2.10;;;;;;;17.42;59.55;97904.39;1722796;83;25772;-86
2022/10/05 11:14:41;;;;;;;3.95;2.10;;;;;;;17.42;59.55;97904.39;1722459;83;25755;-87
2022/10/05 11:17:19;;;;;;;4.00;1.98;;;;;;;17.46;59.56;97907.47;1721876;83;25699;-87
2022/10/05 11:20:03;;;;;;;4.70;2.00;;;;;;;17.44;59.24;97906.34;1721298;83;27388;-87
2022/10/05 11:23:05;;;;;;;4.45;2.20;;;;;;;17.52;59.46;97907.31;1687671;83;25815;-86
2022/10/05 11:26:04;;;;;;;4.85;2.42;;;;;;;17.58;58.98;97911.81;1722684;82;25685;-87
2022/10/05 11:28:51;;;;;;;2.92;2.12;;;;;;;17.60;59.00;97906.11;1722594;82;25750;-86
2022/10/05 11:31:43;;;;;;;4.83;2.15;;;;;;;17.67;59.44;97908.71;1722386;82;25960;-85
2022/10/05 11:34:18;;;;;;;4.60;2.03;;;;;;;17.76;59.02;97897.68;1722772;83;27376;-87
2022/10/05 11:37:15;;;;;;;2.70;2.17;;;;;;;17.86;58.53;97904.19;1721319;83;26155;-86
2022/10/05 11:40:16;;;;;;;4.78;2.42;;;;;;;17.89;58.01;97906.94;1722578;83;26361;-86
2022/10/05 11:43:13;;;;;;;3.83;2.45;;;;;;;17.99;58.40;97904.41;1722174;83;25754;-87
2022/10/05 11:45:53;;;;;;;3.02;2.50;;;;;;;18.02;57.64;97908.52;1720719;83;25870;-87
2022/10/05 11:48:45;;;;;;;4.72;2.50;;;;;;;18.11;57.51;97905.17;1706768;82;28410;-85
2022/10/05 11:51:23;;;;;;;4.10;2.30;;;;;;;18.22;57.08;97911.09;1722120;83;25713;-86
2022/10/05 11:54:22;;;;;;;4.80;2.72;;;;;;;18.29;56.99;97913.11;1722670;83;26376;-86
2022/10/05 11:56:59;;;;;;;3.95;2.60;;;;;;;18.36;57.13;97904.19;1709659;83;25688;-87
2022/10/05 11:59:33;;;;;;;5.30;2.30;;;;;;;18.43;57.07;97909.50;1722344;83;25773;-87
2022/10/05 12:02:32;;;;;;;3.60;2.72;;;;;;;18.44;57.08;97908.97;1722450;82;28181;-87
2022/10/05 12:05:26;;;;;;;3.12;2.52;;;;;;;18.48;56.92;97912.84;1722354;82;25820;-86
2022/10/05 12:08:34;;;;;;;3.15;2.70;;;;;;;18.49;56.57;97913.13;1722255;83;25247;-87
2022/10/05 12:11:38;;;;;;;4.78;2.55;;;;;;;18.51;56.85;97915.08;1722623;82;25682;-86
2022/10/05 12:14:23;;;;;;;4.83;2.30;;;;;;;18.53;56.54;97914.30;1722028;83;25757;-87
2022/10/05 12:17:13;;;;;;;6.65;2.70;;;;;;;18.48;56.20;97913.66;1714492;83;27370;-86
2022/10/05 12:19:43;;;;;;;5.70;2.98;;;;;;;18.52;56.62;97918.11;1722347;82;26269;-87
2022/10/05 12:22:24;;;;;;;5.37;2.85;;;;;;;18.54;56.25;97920.05;1722606;83;25741;-87
2022/10/05 12:25:22;;;;;;;3.87;3.02;;;;;;;18.50;56.08;97913.42;1722292;82;26350;-86
2022/10/05 12:28:03;;;;;;;5.42;3.08;;;;;;;18.53;56.57;97915.66;1722523;83;25819;-86
2022/10/05 12:31:08;;;;;;;6.30;3.35;;;;;;;18.55;55.92;97924.45;1722602;82;27364;-84
2022/10/05 12:33:58;;;;;;;3.02;2.50;;;;;;;18.53;55.62;97920.59;1722445;82;25828;-86
2022/10/05 12:36:57;;;;;;;6.87;2.92;;;;;;;18.50;55.33;97916.98;1722113;80;25677;-85
2022/10/05 12:39:48;;;;;;;4.33;2.80;;;;;;;18.43;55.69;97919.61;1722398;83;25772;-86
2022/10/05 12:42:23;;;;;;;5.90;2.67;;;;;;;18.42;55.90;97917.41;1720666;83;25907;-86
2022/10/05 12:45:13;;;;;;;4.58;2.58;;;;;;;18.43;55.63;97918.24;1722651;82;28140;-86
2022/10/05 12:48:07;;;;;;;3.72;2.50;;;;;;;18.43;56.11;97911.41;1722629;82;25895;-86
2022/10/05 12:50:41;;;;;;;5.20;2.62;;;;;;;18.42;56.23;97910.58;1722685;82;25765;-86
2022/10/05 12:53:37;;;;;;;3.15;2.20;;;;;;;18.42;56.29;97915.22;1720984;83;25750;-87
2022/10/05 12:56:35;;;;;;;4.95;2.52;;;;;;;18.43;56.06;97911.41;1722368;83;25816;-86
2022/10/05 12:59:22;;;;;;;7.83;2.47;;;;;;;18.46;55.79;97905.45;1722508;82;27359;-86
2022/10/05 13:02:15;;;;;;;7.75;2.77;;;;;;;18.51;55.76;97898.14;1722513;82;25690;-87
2022/10/05 13:05:06;;;;;;;3.05;2.47;;;;;;;18.55;55.97;97906.68;1722592;83;25765;-87
2022/10/05 13:07:47;;;;;;;5.90;3.02;;;;;;;18.59;55.42;97901.05;1722545;82;25693;-86